Terminal Aerodrome Forecast
Issued by NWS

Home | Current Version | Previous Version | Text Only | Print | Product List | Glossary On
Versions: 1 2 3 4 5 6 7 8 9 10 11 12 13 14
000
FTUS45 KGGW 221727
TAFGDV
TAF
KGDV 221727Z 2218/2318 01015G23KT P6SM VCSH BKN060
     FM230200 34007KT P6SM SCT070
     FM231400 03007KT P6SM SKC=

USA.gov is the U.S. government's official web portal to all federal, state and local government web resources and services.